Time;durP1;ratioP1;P1;durP2;ratioP2;P2;SDS_P1;SDS_P2;PMS_P1;PMS_P2;Temp;Humidity;BMP_temperature;BMP_pressure;BME280_temperature;BME280_humidity;BME280_pressure;Samples;Min_cycle;Max_cycle;Signal;HPM_P1;HPM_P2
2022/12/13 00:02:15;;;;;;;0.90;0.90;;;;;;;;;;6210343;23;20192;-76
2022/12/13 00:04:41;;;;;;;1.00;1.00;;;;;;;;;;6209717;22;20176;-76
2022/12/13 00:07:07;;;;;;;0.97;0.97;;;;;;;;;;6210334;23;20159;-75
2022/12/13 00:09:33;;;;;;;0.90;0.90;;;;;;;;;;6209782;23;20498;-75
2022/12/13 00:11:59;;;;;;;0.80;0.80;;;;;;;;;;6209515;23;20155;-75
2022/12/13 00:14:25;;;;;;;0.87;0.87;;;;;;;;;;6210387;22;20210;-76
2022/12/13 00:16:51;;;;;;;0.90;0.90;;;;;;;;;;6209922;23;20647;-75
2022/12/13 00:19:18;;;;;;;0.90;0.90;;;;;;;;;;6209348;23;20263;-75
2022/12/13 00:21:44;;;;;;;1.00;1.00;;;;;;;;;;6209850;23;20235;-74
2022/12/13 00:24:09;;;;;;;1.00;1.00;;;;;;;;;;6208867;22;20172;-76
2022/12/13 00:26:35;;;;;;;0.90;0.90;;;;;;;;;;6209739;23;20147;-75
2022/12/13 00:29:03;;;;;;;0.90;0.90;;;;;;;;;;6209243;23;20250;-75
2022/12/13 00:31:32;;;;;;;1.00;1.00;;;;;;;;;;6209871;23;20148;-76
2022/12/13 00:33:59;;;;;;;1.00;1.00;;;;;;;;;;6209327;22;20179;-76
2022/12/13 00:36:25;;;;;;;1.00;1.00;;;;;;;;;;6209435;23;20183;-75
2022/12/13 00:38:59;;;;;;;0.90;0.90;;;;;;;;;;6209938;23;20154;-75
2022/12/13 00:41:26;;;;;;;0.90;0.90;;;;;;;;;;6209955;23;20208;-75
2022/12/13 00:43:52;;;;;;;0.90;0.90;;;;;;;;;;6209127;22;20182;-76
2022/12/13 00:46:20;;;;;;;1.00;1.00;;;;;;;;;;6209924;23;20152;-75
2022/12/13 00:48:50;;;;;;;0.90;0.90;;;;;;;;;;6207963;23;20155;-76
2022/12/13 00:51:16;;;;;;;0.97;0.97;;;;;;;;;;6209824;23;20152;-75
2022/12/13 00:53:42;;;;;;;0.80;0.80;;;;;;;;;;6208738;22;20571;-75
2022/12/13 00:56:11;;;;;;;0.90;0.90;;;;;;;;;;6207502;23;20191;-75
2022/12/13 00:58:38;;;;;;;0.80;0.80;;;;;;;;;;6209600;23;20173;-74
2022/12/13 01:01:05;;;;;;;0.97;0.97;;;;;;;;;;6209234;23;20594;-75
2022/12/13 01:03:31;;;;;;;1.00;1.00;;;;;;;;;;6208372;22;20645;-75
2022/12/13 01:05:57;;;;;;;1.00;1.00;;;;;;;;;;6209323;23;20182;-75
2022/12/13 01:08:23;;;;;;;0.90;0.90;;;;;;;;;;6209552;23;20242;-75
2022/12/13 01:10:49;;;;;;;1.00;1.00;;;;;;;;;;6209701;23;20174;-74
2022/12/13 01:13:15;;;;;;;1.00;1.00;;;;;;;;;;6208847;22;20504;-75
2022/12/13 01:15:42;;;;;;;1.00;1.00;;;;;;;;;;6209509;23;20187;-75
2022/12/13 01:18:09;;;;;;;1.00;1.00;;;;;;;;;;6208829;23;20503;-76
2022/12/13 01:20:35;;;;;;;0.90;0.90;;;;;;;;;;6209659;23;20147;-75
2022/12/13 01:23:01;;;;;;;0.90;0.90;;;;;;;;;;6208696;22;20175;-76
2022/12/13 01:25:27;;;;;;;1.00;1.00;;;;;;;;;;6209337;23;20263;-75
2022/12/13 01:27:53;;;;;;;1.00;1.00;;;;;;;;;;6209471;23;20664;-75
2022/12/13 01:30:19;;;;;;;0.90;0.90;;;;;;;;;;6209431;23;20151;-76
2022/12/13 01:32:45;;;;;;;0.80;0.80;;;;;;;;;;6208178;22;20521;-75
2022/12/13 01:35:12;;;;;;;0.90;0.90;;;;;;;;;;6208894;23;20183;-75
2022/12/13 01:37:39;;;;;;;0.90;0.90;;;;;;;;;;6209453;23;20147;-74
2022/12/13 01:40:05;;;;;;;0.93;0.93;;;;;;;;;;6208898;23;20152;-75
2022/12/13 01:42:31;;;;;;;1.00;1.00;;;;;;;;;;6208122;22;20538;-75
2022/12/13 01:44:58;;;;;;;0.90;0.90;;;;;;;;;;6208813;23;20637;-75
2022/12/13 01:47:24;;;;;;;1.00;1.00;;;;;;;;;;6209185;23;20144;-75
2022/12/13 01:49:51;;;;;;;0.90;0.90;;;;;;;;;;6209051;23;20162;-75
2022/12/13 01:52:17;;;;;;;0.90;0.90;;;;;;;;;;6208157;23;20647;-75
2022/12/13 01:54:46;;;;;;;1.00;1.00;;;;;;;;;;6208491;22;20451;-76
2022/12/13 01:57:12;;;;;;;1.00;1.00;;;;;;;;;;6209062;23;20458;-74
2022/12/13 01:59:39;;;;;;;1.00;1.00;;;;;;;;;;6209143;23;20155;-75
2022/12/13 02:02:07;;;;;;;1.00;1.00;;;;;;;;;;6208326;23;20159;-75
2022/12/13 02:04:39;;;;;;;0.90;0.90;;;;;;;;;;6210317;22;20168;-74
2022/12/13 02:07:05;;;;;;;0.90;0.90;;;;;;;;;;6209369;23;20170;-75
2022/12/13 02:09:31;;;;;;;0.90;0.90;;;;;;;;;;6209286;23;20457;-75
2022/12/13 02:11:57;;;;;;;0.83;0.83;;;;;;;;;;6208871;23;20234;-76
2022/12/13 02:14:23;;;;;;;1.00;1.00;;;;;;;;;;6209400;22;20202;-76
2022/12/13 02:16:51;;;;;;;0.97;0.97;;;;;;;;;;6208828;23;20156;-75
2022/12/13 02:19:36;;;;;;;0.90;0.90;;;;;;;;;;6208865;23;20170;-76
2022/12/13 02:22:17;;;;;;;0.90;0.90;;;;;;;;;;6208195;23;20258;-77
2022/12/13 02:24:58;;;;;;;1.00;1.00;;;;;;;;;;6208734;22;20186;-76
2022/12/13 02:27:27;;;;;;;0.90;0.90;;;;;;;;;;6208922;23;20143;-76
2022/12/13 02:29:56;;;;;;;0.90;0.90;;;;;;;;;;6208824;23;20155;-76
2022/12/13 02:32:22;;;;;;;1.00;1.00;;;;;;;;;;6207958;22;20238;-76
2022/12/13 02:34:56;;;;;;;0.90;0.90;;;;;;;;;;6209723;23;20559;-76
2022/12/13 02:37:24;;;;;;;0.80;0.80;;;;;;;;;;6209962;23;20162;-76
2022/12/13 02:40:10;;;;;;;1.10;1.10;;;;;;;;;;6209818;23;20481;-76
2022/12/13 02:42:42;;;;;;;1.00;1.00;;;;;;;;;;6209128;22;20677;-76
2022/12/13 02:45:11;;;;;;;0.90;0.90;;;;;;;;;;6209785;23;20664;-76
2022/12/13 02:47:39;;;;;;;1.10;1.10;;;;;;;;;;6209972;23;20183;-75
2022/12/13 02:50:06;;;;;;;0.90;0.90;;;;;;;;;;6209881;23;20148;-77
2022/12/13 02:52:32;;;;;;;0.90;0.90;;;;;;;;;;6209636;22;20155;-76
2022/12/13 02:54:58;;;;;;;1.07;1.07;;;;;;;;;;6210184;23;20183;-77
2022/12/13 02:57:29;;;;;;;0.90;0.90;;;;;;;;;;6210214;23;20167;-76
2022/12/13 02:59:55;;;;;;;0.90;0.90;;;;;;;;;;6210308;23;20486;-76
2022/12/13 03:02:36;;;;;;;1.00;1.00;;;;;;;;;;6209925;22;20156;-76
2022/12/13 03:08:02;;;;;;;0.90;0.90;;;;;;;;;;6210093;23;20174;-75
2022/12/13 03:10:32;;;;;;;1.00;1.00;;;;;;;;;;6210094;23;20220;-75
2022/12/13 03:15:57;;;;;;;0.90;0.90;;;;;;;;;;6209820;23;20194;-76
2022/12/13 03:18:25;;;;;;;0.93;0.93;;;;;;;;;;6210096;23;20159;-76
2022/12/13 03:20:52;;;;;;;1.00;1.00;;;;;;;;;;6210267;23;20171;-75
2022/12/13 03:23:19;;;;;;;1.00;1.00;;;;;;;;;;6209665;22;20242;-76
2022/12/13 03:25:46;;;;;;;0.90;0.90;;;;;;;;;;6209757;23;20613;-76
2022/12/13 03:28:12;;;;;;;0.90;0.90;;;;;;;;;;6209647;23;20160;-76
2022/12/13 03:30:38;;;;;;;0.90;0.90;;;;;;;;;;6210304;23;20159;-76
2022/12/13 03:33:04;;;;;;;0.90;0.90;;;;;;;;;;6209176;22;20215;-76
2022/12/13 03:35:31;;;;;;;0.80;0.80;;;;;;;;;;6210124;23;20183;-75
2022/12/13 03:37:58;;;;;;;0.90;0.90;;;;;;;;;;6210063;23;20151;-76
2022/12/13 03:40:24;;;;;;;0.90;0.90;;;;;;;;;;6209569;23;20171;-76
2022/12/13 03:42:50;;;;;;;1.00;1.00;;;;;;;;;;6209279;22;20614;-76
2022/12/13 03:45:17;;;;;;;0.90;0.90;;;;;;;;;;6208896;23;20178;-76
2022/12/13 03:47:43;;;;;;;1.03;1.03;;;;;;;;;;6209656;23;20186;-76
2022/12/13 03:50:09;;;;;;;0.90;0.90;;;;;;;;;;6209923;23;20155;-74
2022/12/13 03:52:35;;;;;;;0.90;0.90;;;;;;;;;;6209653;22;20151;-76
2022/12/13 03:55:01;;;;;;;0.90;0.90;;;;;;;;;;6210010;23;20183;-76
2022/12/13 03:57:28;;;;;;;0.90;0.90;;;;;;;;;;6210063;23;20154;-76
2022/12/13 03:59:54;;;;;;;0.90;0.90;;;;;;;;;;6210416;23;20163;-75
2022/12/13 04:02:20;;;;;;;1.00;1.00;;;;;;;;;;6210365;23;20228;-76
2022/12/13 04:04:46;;;;;;;0.83;0.83;;;;;;;;;;6210816;23;20183;-76
2022/12/13 04:07:12;;;;;;;0.87;0.87;;;;;;;;;;6222719;22;20159;-77
2022/12/13 04:09:37;;;;;;;1.00;1.00;;;;;;;;;;6220778;22;20187;-77
2022/12/13 04:14:48;;;;;;;0.90;0.90;;;;;;;;;;6210275;23;20190;-76
2022/12/13 04:17:14;;;;;;;0.97;0.97;;;;;;;;;;6209796;23;20151;-77
2022/12/13 04:19:40;;;;;;;1.00;1.00;;;;;;;;;;6208009;23;20249;-76
2022/12/13 04:22:06;;;;;;;1.00;1.00;;;;;;;;;;6208933;23;20605;-76
2022/12/13 04:24:32;;;;;;;0.90;0.90;;;;;;;;;;6209493;22;20221;-75
2022/12/13 04:26:59;;;;;;;0.90;0.90;;;;;;;;;;6209907;23;20155;-75
2022/12/13 04:29:25;;;;;;;1.10;1.10;;;;;;;;;;6209795;23;20231;-76
2022/12/13 04:31:51;;;;;;;1.00;1.00;;;;;;;;;;6209821;23;20148;-76
2022/12/13 04:34:17;;;;;;;0.90;0.90;;;;;;;;;;6208801;22;20183;-76
2022/12/13 04:36:43;;;;;;;0.90;0.90;;;;;;;;;;6209642;23;20166;-76
2022/12/13 04:39:09;;;;;;;0.90;0.90;;;;;;;;;;6209893;23;20151;-77
2022/12/13 04:41:36;;;;;;;0.90;0.90;;;;;;;;;;6209811;23;20593;-77
2022/12/13 04:44:02;;;;;;;0.80;0.80;;;;;;;;;;6209832;22;20178;-77
2022/12/13 04:46:29;;;;;;;0.90;0.90;;;;;;;;;;6210090;23;20155;-77
2022/12/13 04:48:55;;;;;;;0.90;0.90;;;;;;;;;;6211237;23;20162;-77
2022/12/13 04:51:21;;;;;;;0.80;0.80;;;;;;;;;;6210035;23;20155;-77
2022/12/13 04:53:47;;;;;;;0.90;0.90;;;;;;;;;;6207915;22;20251;-77
2022/12/13 04:56:12;;;;;;;0.70;0.70;;;;;;;;;;6210541;23;20676;-77
2022/12/13 04:58:38;;;;;;;0.90;0.90;;;;;;;;;;6210029;23;20222;-76
2022/12/13 05:01:11;;;;;;;0.80;0.80;;;;;;;;;;6209316;23;20210;-77
2022/12/13 05:03:37;;;;;;;0.80;0.80;;;;;;;;;;6208509;22;20516;-76
2022/12/13 05:06:07;;;;;;;0.90;0.90;;;;;;;;;;6209575;23;20163;-77
2022/12/13 05:08:33;;;;;;;0.97;0.97;;;;;;;;;;6208994;23;20242;-76
2022/12/13 05:10:59;;;;;;;0.83;0.83;;;;;;;;;;6209246;23;20183;-77
2022/12/13 05:13:25;;;;;;;0.90;0.90;;;;;;;;;;6210141;22;20182;-77
2022/12/13 05:15:58;;;;;;;0.90;0.90;;;;;;;;;;6209827;23;20187;-77
2022/12/13 05:18:24;;;;;;;0.90;0.90;;;;;;;;;;6210213;23;20639;-76
2022/12/13 05:20:50;;;;;;;0.77;0.77;;;;;;;;;;6209990;23;20479;-77
2022/12/13 05:23:17;;;;;;;0.80;0.80;;;;;;;;;;6209093;22;20189;-77
2022/12/13 05:25:42;;;;;;;0.80;0.80;;;;;;;;;;6209583;23;20554;-76
2022/12/13 05:28:09;;;;;;;0.80;0.80;;;;;;;;;;6209595;23;20148;-76
2022/12/13 05:30:37;;;;;;;0.80;0.80;;;;;;;;;;6209950;23;20171;-77
2022/12/13 05:33:03;;;;;;;0.80;0.80;;;;;;;;;;6209278;22;20508;-77
2022/12/13 05:35:29;;;;;;;0.97;0.97;;;;;;;;;;6210234;23;20257;-77
2022/12/13 05:37:55;;;;;;;0.90;0.90;;;;;;;;;;6216917;23;20151;-77
2022/12/13 05:40:22;;;;;;;0.80;0.80;;;;;;;;;;6233975;22;20151;-77
2022/12/13 05:42:48;;;;;;;0.90;0.90;;;;;;;;;;6237382;22;20170;-77
2022/12/13 05:45:15;;;;;;;0.90;0.90;;;;;;;;;;6237364;22;20136;-78
2022/12/13 05:47:41;;;;;;;0.80;0.80;;;;;;;;;;6237381;22;20155;-77
2022/12/13 05:50:07;;;;;;;0.80;0.80;;;;;;;;;;6237355;22;20159;-77
2022/12/13 05:52:33;;;;;;;0.90;0.90;;;;;;;;;;6230190;22;20216;-76
2022/12/13 05:54:59;;;;;;;0.90;0.90;;;;;;;;;;6209798;23;20195;-76
2022/12/13 05:57:25;;;;;;;0.90;0.90;;;;;;;;;;6209188;23;20148;-77
2022/12/13 05:59:51;;;;;;;0.90;0.90;;;;;;;;;;6209432;23;20155;-77
2022/12/13 06:02:17;;;;;;;0.80;0.80;;;;;;;;;;6208291;23;20526;-76
2022/12/13 06:04:43;;;;;;;0.80;0.80;;;;;;;;;;6209207;22;20201;-77
2022/12/13 06:07:10;;;;;;;0.87;0.87;;;;;;;;;;6208793;23;20197;-76
2022/12/13 06:09:36;;;;;;;0.70;0.70;;;;;;;;;;6209646;23;20598;-76
2022/12/13 06:12:02;;;;;;;0.80;0.80;;;;;;;;;;6209541;23;20155;-77
2022/12/13 06:14:28;;;;;;;0.80;0.80;;;;;;;;;;6209540;22;20176;-76
2022/12/13 06:16:54;;;;;;;0.80;0.80;;;;;;;;;;6210121;23;20159;-76
2022/12/13 06:19:20;;;;;;;0.80;0.80;;;;;;;;;;6210018;23;20171;-76
2022/12/13 06:21:46;;;;;;;0.80;0.80;;;;;;;;;;6209994;23;20206;-76
2022/12/13 06:24:14;;;;;;;0.97;0.97;;;;;;;;;;6209151;22;20167;-76
2022/12/13 06:26:40;;;;;;;0.90;0.90;;;;;;;;;;6209878;23;20466;-75
2022/12/13 06:29:06;;;;;;;0.80;0.80;;;;;;;;;;6209931;23;20171;-76
2022/12/13 06:31:32;;;;;;;0.90;0.90;;;;;;;;;;6209835;23;20487;-76
2022/12/13 06:34:01;;;;;;;0.80;0.80;;;;;;;;;;6208999;22;20171;-76
2022/12/13 06:36:27;;;;;;;0.80;0.80;;;;;;;;;;6210000;23;20265;-77
2022/12/13 06:38:53;;;;;;;0.90;0.90;;;;;;;;;;6209609;23;20155;-76
2022/12/13 06:41:19;;;;;;;0.90;0.90;;;;;;;;;;6210159;23;20201;-75
2022/12/13 06:43:45;;;;;;;1.00;1.00;;;;;;;;;;6208754;22;20210;-73
2022/12/13 06:46:11;;;;;;;0.80;0.80;;;;;;;;;;6209893;23;20162;-74
2022/12/13 06:48:39;;;;;;;0.93;0.93;;;;;;;;;;6209781;23;20151;-73
2022/12/13 06:51:06;;;;;;;0.80;0.80;;;;;;;;;;6209813;23;20155;-73
2022/12/13 06:53:32;;;;;;;0.83;0.83;;;;;;;;;;6209945;22;20254;-81
2022/12/13 06:56:02;;;;;;;0.80;0.80;;;;;;;;;;6211516;23;20244;-79
2022/12/13 06:58:28;;;;;;;0.80;0.80;;;;;;;;;;6210862;23;20146;-80
2022/12/13 07:01:14;;;;;;;0.90;0.90;;;;;;;;;;6214665;23;20151;-76
2022/12/13 07:03:40;;;;;;;0.90;0.90;;;;;;;;;;6210898;22;20175;-79
2022/12/13 07:06:07;;;;;;;0.90;0.90;;;;;;;;;;6218629;23;20677;-79
2022/12/13 07:08:34;;;;;;;0.90;0.90;;;;;;;;;;6213494;23;20162;-79
2022/12/13 07:11:01;;;;;;;0.90;0.90;;;;;;;;;;6217466;23;20159;-79
2022/12/13 07:13:27;;;;;;;0.90;0.90;;;;;;;;;;6214231;22;20172;-78
2022/12/13 07:15:53;;;;;;;0.90;0.90;;;;;;;;;;6210391;23;20275;-76
2022/12/13 07:18:19;;;;;;;0.90;0.90;;;;;;;;;;6209760;23;20223;-77
2022/12/13 07:20:45;;;;;;;1.00;1.00;;;;;;;;;;6209714;23;20612;-77
2022/12/13 07:23:11;;;;;;;0.90;0.90;;;;;;;;;;6209878;22;20174;-77
2022/12/13 07:25:37;;;;;;;0.80;0.80;;;;;;;;;;6215918;23;20156;-78
2022/12/13 07:28:04;;;;;;;0.80;0.80;;;;;;;;;;6210036;23;20216;-78
2022/12/13 07:30:32;;;;;;;0.80;0.80;;;;;;;;;;6212342;23;20238;-77
2022/12/13 07:32:58;;;;;;;0.90;0.90;;;;;;;;;;6211172;22;20171;-78
2022/12/13 07:35:24;;;;;;;0.90;0.90;;;;;;;;;;6211067;23;20262;-77
2022/12/13 07:37:50;;;;;;;1.00;1.00;;;;;;;;;;6212565;23;20155;-79
2022/12/13 07:40:16;;;;;;;1.00;1.00;;;;;;;;;;6211727;23;20597;-79
2022/12/13 07:42:48;;;;;;;0.97;0.97;;;;;;;;;;6209987;22;20175;-78
2022/12/13 07:45:14;;;;;;;0.90;0.90;;;;;;;;;;6210254;23;20582;-78
2022/12/13 07:47:40;;;;;;;1.07;1.07;;;;;;;;;;6210756;23;20250;-78
2022/12/13 07:50:06;;;;;;;0.90;0.90;;;;;;;;;;6212304;23;20241;-79
2022/12/13 07:52:32;;;;;;;0.90;0.90;;;;;;;;;;6214698;22;20155;-78
2022/12/13 07:54:58;;;;;;;0.90;0.90;;;;;;;;;;6219835;23;20279;-80
2022/12/13 07:57:24;;;;;;;1.00;1.00;;;;;;;;;;6221783;23;20200;-79
2022/12/13 07:59:50;;;;;;;0.90;0.90;;;;;;;;;;6218520;23;20160;-79
2022/12/13 08:02:16;;;;;;;1.00;1.00;;;;;;;;;;6211262;23;20593;-77
2022/12/13 08:04:42;;;;;;;1.00;1.00;;;;;;;;;;6218170;22;20182;-78
2022/12/13 08:07:09;;;;;;;1.00;1.00;;;;;;;;;;6219735;23;20156;-79
2022/12/13 08:09:35;;;;;;;1.00;1.00;;;;;;;;;;6215492;23;20148;-79
2022/12/13 08:12:01;;;;;;;1.00;1.00;;;;;;;;;;6215991;23;20211;-79
2022/12/13 08:14:27;;;;;;;1.00;1.00;;;;;;;;;;6216357;22;20175;-80
2022/12/13 08:16:53;;;;;;;1.00;1.00;;;;;;;;;;6214196;23;20170;-81
2022/12/13 08:19:22;;;;;;;0.93;0.93;;;;;;;;;;6212542;23;20159;-80
2022/12/13 08:21:50;;;;;;;0.90;0.90;;;;;;;;;;6214210;23;20159;-79
2022/12/13 08:24:16;;;;;;;0.90;0.90;;;;;;;;;;6211971;22;20167;-78
2022/12/13 08:26:41;;;;;;;1.00;1.00;;;;;;;;;;6213876;23;20161;-77
2022/12/13 08:29:08;;;;;;;0.97;0.97;;;;;;;;;;6215857;23;20155;-79
2022/12/13 08:31:34;;;;;;;1.00;1.00;;;;;;;;;;6216892;23;20177;-79
2022/12/13 08:34:00;;;;;;;1.00;1.00;;;;;;;;;;6218510;22;20589;-78
2022/12/13 08:36:26;;;;;;;0.90;0.90;;;;;;;;;;6214239;23;20219;-77
2022/12/13 08:38:54;;;;;;;1.00;1.00;;;;;;;;;;6220297;23;20159;-78
2022/12/13 08:41:20;;;;;;;0.90;0.90;;;;;;;;;;6213096;23;20159;-79
2022/12/13 08:43:46;;;;;;;1.00;1.00;;;;;;;;;;6216354;22;20474;-78
2022/12/13 08:46:12;;;;;;;1.00;1.00;;;;;;;;;;6216999;23;20178;-79
2022/12/13 08:48:38;;;;;;;0.90;0.90;;;;;;;;;;6216813;23;20578;-80
2022/12/13 08:51:13;;;;;;;1.00;1.00;;;;;;;;;;6217059;23;20155;-79
2022/12/13 08:53:39;;;;;;;0.90;0.90;;;;;;;;;;6213120;22;20194;-79
2022/12/13 08:56:08;;;;;;;0.90;0.90;;;;;;;;;;6216645;23;20191;-79
2022/12/13 08:58:34;;;;;;;0.90;0.90;;;;;;;;;;6212876;23;20171;-78
2022/12/13 09:01:00;;;;;;;0.90;0.90;;;;;;;;;;6216535;23;20151;-78
2022/12/13 09:03:26;;;;;;;0.90;0.90;;;;;;;;;;6213187;22;20459;-78
2022/12/13 09:05:52;;;;;;;1.00;1.00;;;;;;;;;;6211496;23;20147;-77
2022/12/13 09:08:18;;;;;;;0.80;0.80;;;;;;;;;;6211160;23;20178;-77
2022/12/13 09:10:45;;;;;;;0.90;0.90;;;;;;;;;;6214962;23;20163;-78
2022/12/13 09:13:11;;;;;;;0.90;0.90;;;;;;;;;;6211158;22;20198;-77
2022/12/13 09:15:39;;;;;;;1.00;1.00;;;;;;;;;;6213997;23;20289;-79
2022/12/13 09:18:05;;;;;;;0.80;0.80;;;;;;;;;;6213758;23;20500;-78
2022/12/13 09:20:31;;;;;;;1.00;1.00;;;;;;;;;;6213398;23;20518;-79
2022/12/13 09:22:57;;;;;;;0.90;0.90;;;;;;;;;;6213659;22;20175;-77
2022/12/13 09:25:23;;;;;;;0.90;0.90;;;;;;;;;;6213600;23;20156;-78
2022/12/13 09:27:49;;;;;;;0.90;0.90;;;;;;;;;;6219582;22;20155;-79
2022/12/13 09:30:15;;;;;;;0.90;0.90;;;;;;;;;;6225260;22;20163;-79
2022/12/13 09:32:48;;;;;;;0.90;0.90;;;;;;;;;;6212288;22;20171;-77
2022/12/13 09:35:14;;;;;;;0.90;0.90;;;;;;;;;;6213024;23;20183;-77
2022/12/13 09:37:40;;;;;;;0.90;0.90;;;;;;;;;;6218132;23;20506;-77
2022/12/13 09:40:09;;;;;;;0.80;0.80;;;;;;;;;;6217874;23;20162;-78
2022/12/13 09:42:35;;;;;;;1.00;1.00;;;;;;;;;;6221548;22;20155;-77
2022/12/13 09:45:03;;;;;;;0.90;0.90;;;;;;;;;;6224571;23;20151;-81
2022/12/13 09:47:41;;;;;;;0.90;0.90;;;;;;;;;;6222283;23;20156;-78
2022/12/13 09:50:08;;;;;;;0.80;0.80;;;;;;;;;;6226703;23;20167;-81
2022/12/13 09:52:39;;;;;;;0.90;0.90;;;;;;;;;;6217525;22;20223;-78
2022/12/13 09:55:28;;;;;;;0.70;0.70;;;;;;;;;;6219374;23;20175;-79
2022/12/13 09:57:54;;;;;;;0.80;0.80;;;;;;;;;;6221941;23;20151;-80
2022/12/13 10:00:22;;;;;;;0.90;0.90;;;;;;;;;;6217920;23;20200;-79
2022/12/13 10:02:53;;;;;;;0.80;0.80;;;;;;;;;;6220891;22;20176;-79
2022/12/13 10:05:22;;;;;;;0.90;0.90;;;;;;;;;;6222268;23;20151;-81
2022/12/13 10:07:48;;;;;;;1.00;1.00;;;;;;;;;;6226726;23;20166;-80
2022/12/13 10:10:14;;;;;;;0.80;0.80;;;;;;;;;;6220101;23;20147;-77
2022/12/13 10:12:42;;;;;;;0.90;0.90;;;;;;;;;;6217041;22;20176;-79
2022/12/13 10:15:10;;;;;;;0.90;0.90;;;;;;;;;;6216251;23;20252;-76
2022/12/13 10:17:38;;;;;;;0.90;0.90;;;;;;;;;;6222015;23;20267;-79
2022/12/13 10:20:05;;;;;;;0.90;0.90;;;;;;;;;;6222879;23;20247;-81
2022/12/13 10:22:31;;;;;;;0.90;0.90;;;;;;;;;;6220387;22;20150;-79
2022/12/13 10:25:04;;;;;;;0.90;0.90;;;;;;;;;;6221312;23;20173;-81
2022/12/13 10:27:41;;;;;;;0.90;0.90;;;;;;;;;;6217412;23;20151;-78
2022/12/13 10:30:23;;;;;;;0.83;0.83;;;;;;;;;;6219961;23;20151;-83
2022/12/13 10:35:40;;;;;;;0.90;0.90;;;;;;;;;;6220796;23;20225;-79
2022/12/13 10:38:09;;;;;;;0.80;0.80;;;;;;;;;;6218891;23;20212;-79
2022/12/13 10:40:36;;;;;;;0.90;0.90;;;;;;;;;;6220498;23;20465;-79
2022/12/13 10:43:14;;;;;;;0.90;0.90;;;;;;;;;;6212266;23;20203;-78
2022/12/13 10:45:56;;;;;;;0.80;0.80;;;;;;;;;;6189621;23;20163;-78
2022/12/13 10:48:24;;;;;;;0.90;0.90;;;;;;;;;;6190640;23;20139;-78
2022/12/13 10:51:00;;;;;;;0.90;0.90;;;;;;;;;;6186725;23;20211;-78
2022/12/13 10:53:28;;;;;;;0.90;0.90;;;;;;;;;;6185853;23;20179;-78
2022/12/13 10:55:55;;;;;;;0.80;0.80;;;;;;;;;;6185810;23;20507;-79
2022/12/13 10:58:22;;;;;;;0.90;0.90;;;;;;;;;;6185911;23;20156;-78
2022/12/13 11:00:48;;;;;;;0.90;0.90;;;;;;;;;;6186867;23;20160;-78
2022/12/13 11:03:31;;;;;;;0.90;0.90;;;;;;;;;;6182596;23;20171;-78
2022/12/13 11:06:13;;;;;;;0.80;0.80;;;;;;;;;;6182776;23;20516;-77
2022/12/13 11:08:40;;;;;;;0.80;0.80;;;;;;;;;;6183776;23;20148;-78
2022/12/13 11:11:06;;;;;;;0.90;0.90;;;;;;;;;;6186897;23;20164;-76
2022/12/13 11:13:37;;;;;;;0.90;0.90;;;;;;;;;;6188837;23;20164;-81
2022/12/13 11:16:04;;;;;;;0.80;0.80;;;;;;;;;;6192076;23;20204;-77
2022/12/13 11:18:35;;;;;;;0.90;0.90;;;;;;;;;;6186096;23;20156;-80
2022/12/13 11:21:02;;;;;;;0.90;0.90;;;;;;;;;;6191579;23;20152;-81
2022/12/13 11:23:31;;;;;;;0.90;0.90;;;;;;;;;;6190581;23;20172;-81
2022/12/13 11:25:59;;;;;;;0.90;0.90;;;;;;;;;;6188993;23;20162;-79
2022/12/13 11:28:44;;;;;;;0.80;0.80;;;;;;;;;;6187958;23;20155;-80
2022/12/13 11:31:19;;;;;;;0.90;0.90;;;;;;;;;;6189007;23;20178;-79
2022/12/13 11:33:54;;;;;;;1.00;1.00;;;;;;;;;;6188892;23;20253;-81
2022/12/13 11:36:25;;;;;;;1.00;1.00;;;;;;;;;;6189366;23;20179;-80
2022/12/13 11:38:55;;;;;;;0.97;0.97;;;;;;;;;;6188138;23;20140;-79
2022/12/13 11:41:21;;;;;;;0.80;0.80;;;;;;;;;;6187684;23;20231;-80
2022/12/13 11:43:54;;;;;;;0.90;0.90;;;;;;;;;;6184384;23;20172;-80
2022/12/13 11:46:26;;;;;;;0.90;0.90;;;;;;;;;;6184149;23;20512;-80
2022/12/13 11:49:16;;;;;;;0.90;0.90;;;;;;;;;;6188301;23;20222;-79
2022/12/13 11:51:46;;;;;;;0.90;0.90;;;;;;;;;;6191108;23;20137;-78
2022/12/13 11:54:20;;;;;;;0.90;0.90;;;;;;;;;;6191150;23;20203;-79
2022/12/13 11:56:46;;;;;;;0.90;0.90;;;;;;;;;;6191170;23;20179;-78
2022/12/13 11:59:21;;;;;;;0.90;0.90;;;;;;;;;;6186787;23;20235;-79
2022/12/13 12:01:51;;;;;;;0.90;0.90;;;;;;;;;;6188063;23;20242;-79
2022/12/13 12:04:33;;;;;;;0.90;0.90;;;;;;;;;;6192267;23;20168;-80
2022/12/13 12:07:04;;;;;;;0.90;0.90;;;;;;;;;;6193072;23;20232;-80
2022/12/13 12:09:31;;;;;;;0.80;0.80;;;;;;;;;;6193566;23;20137;-81
2022/12/13 12:12:02;;;;;;;0.80;0.80;;;;;;;;;;6195672;23;20202;-79
2022/12/13 12:14:40;;;;;;;0.90;0.90;;;;;;;;;;6200033;22;20281;-77
2022/12/13 12:17:06;;;;;;;0.80;0.80;;;;;;;;;;6213442;23;20231;-76
2022/12/13 12:19:38;;;;;;;0.90;0.90;;;;;;;;;;6212876;23;20143;-77
2022/12/13 12:22:17;;;;;;;0.90;0.90;;;;;;;;;;6211497;23;20151;-76
2022/12/13 12:25:00;;;;;;;0.90;0.90;;;;;;;;;;6210328;22;20171;-76
2022/12/13 12:27:44;;;;;;;0.90;0.90;;;;;;;;;;6211248;23;20151;-76
2022/12/13 12:30:13;;;;;;;0.80;0.80;;;;;;;;;;6209931;23;20543;-74
2022/12/13 12:32:42;;;;;;;0.97;0.97;;;;;;;;;;6209467;22;20155;-72
2022/12/13 12:35:26;;;;;;;0.90;0.90;;;;;;;;;;6209896;23;20186;-72
2022/12/13 12:37:56;;;;;;;0.90;0.90;;;;;;;;;;6210066;23;20156;-73
2022/12/13 12:40:48;;;;;;;0.90;0.90;;;;;;;;;;6210098;23;20509;-74
2022/12/13 12:43:26;;;;;;;0.90;0.90;;;;;;;;;;6209855;22;20175;-73
2022/12/13 12:45:55;;;;;;;0.90;0.90;;;;;;;;;;6209821;23;20608;-73
2022/12/13 12:48:30;;;;;;;0.80;0.80;;;;;;;;;;6210054;23;20227;-74
2022/12/13 12:50:59;;;;;;;0.80;0.80;;;;;;;;;;6209788;23;20227;-73
2022/12/13 12:53:34;;;;;;;0.90;0.90;;;;;;;;;;6209304;22;20589;-72
2022/12/13 12:56:07;;;;;;;0.90;0.90;;;;;;;;;;6210104;23;20552;-72
2022/12/13 12:58:51;;;;;;;0.90;0.90;;;;;;;;;;6210491;23;20174;-73
2022/12/13 13:01:24;;;;;;;1.00;1.00;;;;;;;;;;6209813;23;20152;-73
2022/12/13 13:03:52;;;;;;;0.90;0.90;;;;;;;;;;6209374;22;20177;-74
2022/12/13 13:06:30;;;;;;;0.90;0.90;;;;;;;;;;6209963;23;20175;-73
2022/12/13 13:08:58;;;;;;;0.97;0.97;;;;;;;;;;6210154;23;20192;-73
2022/12/13 13:11:25;;;;;;;0.90;0.90;;;;;;;;;;6211788;23;20147;-74
2022/12/13 13:14:02;;;;;;;0.90;0.90;;;;;;;;;;6209218;22;20250;-73
2022/12/13 13:16:28;;;;;;;1.00;1.00;;;;;;;;;;6209857;23;20185;-74
2022/12/13 13:18:54;;;;;;;0.90;0.90;;;;;;;;;;6209509;23;20226;-75
2022/12/13 13:21:24;;;;;;;0.90;0.90;;;;;;;;;;6209976;23;20155;-75
2022/12/13 13:24:05;;;;;;;0.90;0.90;;;;;;;;;;6209561;22;20205;-75
2022/12/13 13:26:32;;;;;;;0.90;0.90;;;;;;;;;;6210084;23;20157;-74
2022/12/13 13:29:17;;;;;;;0.90;0.90;;;;;;;;;;6210185;23;20151;-74
2022/12/13 13:31:56;;;;;;;0.90;0.90;;;;;;;;;;6192038;23;20259;-74
2022/12/13 13:34:24;;;;;;;1.00;1.00;;;;;;;;;;6209056;22;20179;-74
2022/12/13 13:36:51;;;;;;;1.00;1.00;;;;;;;;;;6208900;23;20626;-75
2022/12/13 13:39:18;;;;;;;0.90;0.90;;;;;;;;;;6208952;23;20606;-76
2022/12/13 13:42:02;;;;;;;1.00;1.00;;;;;;;;;;6209758;23;20160;-73
2022/12/13 13:44:46;;;;;;;0.90;0.90;;;;;;;;;;6209603;22;20175;-75
2022/12/13 13:47:15;;;;;;;1.00;1.00;;;;;;;;;;6210372;23;20151;-75
2022/12/13 13:49:58;;;;;;;1.00;1.00;;;;;;;;;;6209861;23;20151;-74
2022/12/13 13:52:25;;;;;;;1.00;1.00;;;;;;;;;;6208844;22;20159;-74
2022/12/13 13:54:58;;;;;;;0.90;0.90;;;;;;;;;;6207713;23;20485;-74
2022/12/13 13:57:24;;;;;;;0.90;0.90;;;;;;;;;;6209843;23;20150;-74
2022/12/13 13:59:53;;;;;;;0.90;0.90;;;;;;;;;;6210507;23;20602;-74
2022/12/13 14:02:22;;;;;;;1.00;1.00;;;;;;;;;;6210409;23;20156;-75
2022/12/13 14:04:59;;;;;;;0.70;0.70;;;;;;;;;;6209649;23;20713;-74
2022/12/13 14:07:37;;;;;;;0.90;0.90;;;;;;;;;;6220989;23;20151;-74
2022/12/13 14:10:13;;;;;;;1.00;1.00;;;;;;;;;;6235998;22;20159;-74
2022/12/13 14:12:52;;;;;;;0.90;0.90;;;;;;;;;;6237041;22;20128;-74
2022/12/13 14:15:18;;;;;;;1.00;1.00;;;;;;;;;;6236822;22;20198;-73
2022/12/13 14:17:44;;;;;;;0.90;0.90;;;;;;;;;;6237989;22;20147;-74
2022/12/13 14:20:10;;;;;;;1.00;1.00;;;;;;;;;;6237448;22;20160;-73
2022/12/13 14:22:52;;;;;;;0.83;0.83;;;;;;;;;;6236768;22;20150;-74
2022/12/13 14:25:37;;;;;;;0.90;0.90;;;;;;;;;;6237990;22;20131;-73
2022/12/13 14:28:24;;;;;;;1.00;1.00;;;;;;;;;;6237808;22;20144;-74
2022/12/13 14:30:50;;;;;;;0.87;0.87;;;;;;;;;;6255652;22;20148;-74
2022/12/13 14:33:23;;;;;;;1.00;1.00;;;;;;;;;;6239331;22;20163;-75
2022/12/13 14:35:56;;;;;;;0.90;0.90;;;;;;;;;;6239328;22;20222;-74
2022/12/13 14:38:26;;;;;;;0.80;0.80;;;;;;;;;;6239621;22;20140;-73
2022/12/13 14:40:54;;;;;;;0.93;0.93;;;;;;;;;;6239629;22;20128;-75
2022/12/13 14:43:24;;;;;;;1.00;1.00;;;;;;;;;;6239172;22;20163;-73
2022/12/13 14:45:56;;;;;;;1.00;1.00;;;;;;;;;;6239913;22;20210;-74
2022/12/13 14:48:23;;;;;;;0.93;0.93;;;;;;;;;;6239005;22;20143;-73
2022/12/13 14:50:50;;;;;;;0.90;0.90;;;;;;;;;;6240190;22;20196;-74
2022/12/13 14:53:28;;;;;;;0.90;0.90;;;;;;;;;;6237814;22;20196;-74
2022/12/13 14:56:06;;;;;;;1.00;1.00;;;;;;;;;;6239007;22;20191;-75
2022/12/13 14:58:32;;;;;;;0.87;0.87;;;;;;;;;;6239027;22;20252;-75
2022/12/13 15:00:58;;;;;;;1.00;1.00;;;;;;;;;;6239791;22;20151;-74
2022/12/13 15:03:26;;;;;;;0.90;0.90;;;;;;;;;;6238960;22;20169;-74
2022/12/13 15:05:54;;;;;;;0.80;0.80;;;;;;;;;;6239894;22;20136;-74